Tuesday, October 21, 2014
07:12 UTC
  |  Log In   |  Register Free
Airport Search:

Southwest Georgia Regional Airport
(KABY)

FAA data valid effective September 18, 2014 - November 13, 2014 (unless otherwise noted).

 
 
 
 
 
 
 
 
 
 
 
 
 
 

Current Aviation Weather for Southwest Georgia Regional Airport (KABY)

The most recent METAR observation for KABY was updated at: 0708
METAR Summary (Translated METAR)
KABY
210653Z 00000KT 10SM SCT045 14/13 A3001 RMK AO2 SLP161 T01440133 $
KMGR
210555Z AUTO 00000KT 10SM CLR 16/16 A3000 RMK AO2
(33.7 nm SE from KABY)
KACJ
210635Z AUTO 00000KT 10SM CLR 12/12 A3002 RMK AO2
(34.5 nm NE from KABY)
TAF Summary (Translated TAF)
KABY
210521Z 2106/2206 00000KT P6SM SKC FM211500 35006KT P6SM SKC
  Airport Weather Conditions for KABY

 Current Weather at ABY
58° F
Fair
North winds at 0.0 mph
ABY NOAA Radar

Pressure: 30.01 in
Humidity: 90%
Wind: Calm
Dew Point: 55.0°F
Visibility: 10.00 mi


Airport Weather Forecast for KABY

Translated METAR and TAF for KABY
Translated METAR for KABY (0707 UTC 21 October 2014)
found at http://aviationweather.gov/adds/metars/
 
METAR text: KABY 210653Z 00000KT 10SM SCT045 14/13 A3001 RMK AO2 SLP161 T01440133 $
Conditions at: KABY (ALBANY , GA, US) observed 0653 UTC 21 October 2014
Temperature: 14.4°C (58°F)
Dewpoint: 13.3°C (56°F) [RH = 93%]
Pressure (altimeter): 30.01 inches Hg (1016.3 mb)
[Sea-level pressure: 1016.1 mb]
Winds: calm
Visibility: 10 or more miles (16+ km)
Ceiling: at least 12,000 feet AGL
Clouds: scattered clouds at 4500 feet AGL
Weather:
SOME DATA ABOVE MAY BE INACCURATE!!!
"$" is an indication the sensor requires maintenance
Translated TAF for KABY
Forecast for: KABY (ALBANY , GA, US)
TAF Text: KABY 210521Z 2106/2206 00000KT P6SM SKC
Forecast period: 0600 to 1500 UTC 21 October 2014
Forecast type: FROM: standard forecast or significant change
Winds: calm
Visibility: 6 or more miles (10+ km)
Clouds: clear skies
Weather: no significant weather forecast for this period
TAF Text: FM211500 35006KT P6SM SKC
Forecast period: 1500 UTC 21 October 2014 to 0600 UTC 22 October 2014
Forecast type: FROM: standard forecast or significant change
Winds: from the N (350 degrees) at 7 MPH (6 knots; 3.1 m/s)
Visibility: 6 or more miles (10+ km)
Clouds: clear skies
Weather: no significant weather forecast for this period

Find All Airport Services Find A Hotel Find A Rental Car Find A Golf Course Find A Restaurant $100 Hamburger



FBO's on the Field
FBO Company Facility Photos Services Transportation Aviation Fuel Prices: Prices include tax
Catering Weather Repair Courtesy Rental Type 100LL JetA JetA+ MOGAS 8087
 
Eagles of America, Inc. - ABY

Currently rated 5 by 1 person
FS:Epic
Last Updated: Oct-16
Login to update fuel prices
SS:
Contact Eagles of America, Inc. - ABYMore FBO Information
 
Add another FBO Facility Photos Catering Weather Repair Courtesy Rental Type 100LL JetA JetA+ MOGAS 8087
Services Transportation Aviation Fuel Prices: Prices include tax


model-print
model-print
model-print
model-print